createdAt,value
2024-01-15T00:03:12.788Z,100369.00
2024-01-15T00:08:14.955Z,100346.00
2024-01-15T00:13:17.209Z,100357.69
2024-01-15T00:18:19.628Z,100365.88
2024-01-15T00:23:22.112Z,100345.75
2024-01-15T00:28:24.314Z,100363.91
2024-01-15T00:33:26.729Z,100350.34
2024-01-15T00:38:28.950Z,100362.94
2024-01-15T00:43:31.710Z,100281.28
2024-01-15T00:48:34.707Z,100275.94
2024-01-15T00:53:37.161Z,100280.41
2024-01-15T00:58:39.377Z,100345.44
2024-01-15T01:03:41.843Z,100322.19
2024-01-15T01:08:44.133Z,100338.13
2024-01-15T01:13:46.415Z,100255.13
2024-01-15T01:18:48.962Z,100346.22
2024-01-15T01:23:51.411Z,100297.09
2024-01-15T01:28:53.705Z,100314.22
2024-01-15T01:33:56.017Z,100265.75
2024-01-15T01:38:58.324Z,100282.66
2024-01-15T01:44:00.652Z,100286.16
2024-01-15T01:49:07.008Z,100252.34
2024-01-15T01:54:10.853Z,100246.53
2024-01-15T01:59:13.808Z,100242.06
2024-01-15T02:04:20.828Z,100250.97
2024-01-15T02:09:24.425Z,100228.97
2024-01-15T02:14:26.656Z,100232.38
2024-01-15T02:19:29.027Z,100304.38
2024-01-15T02:24:31.421Z,100276.63
2024-01-15T02:29:33.754Z,100247.31
2024-01-15T02:34:36.316Z,100197.38
2024-01-15T02:39:38.693Z,100247.91
2024-01-15T02:44:40.917Z,100200.75
2024-01-15T02:49:43.241Z,100267.84
2024-01-15T02:54:45.702Z,100250.06
2024-01-15T02:59:48.029Z,100161.59
2024-01-15T03:04:50.328Z,100172.22
2024-01-15T03:09:52.620Z,100216.47
2024-01-15T03:14:54.926Z,100178.94
2024-01-15T03:19:57.292Z,100253.41
2024-01-15T03:24:59.729Z,100238.81
2024-01-15T03:30:02.052Z,100221.28
2024-01-15T03:35:04.427Z,100233.03
2024-01-15T03:40:07.616Z,100188.03
2024-01-15T03:45:10.072Z,100205.94
2024-01-15T03:50:12.354Z,100133.75
2024-01-15T03:55:14.703Z,100183.91
2024-01-15T04:00:19.104Z,100206.75
2024-01-15T04:05:21.436Z,100209.16
2024-01-15T04:10:23.568Z,100189.41
2024-01-15T04:15:25.843Z,100220.47
2024-01-15T04:20:28.106Z,100218.03
2024-01-15T04:25:30.315Z,100218.78
2024-01-15T04:30:32.637Z,100212.47
2024-01-15T04:35:35.981Z,100186.22
2024-01-15T04:40:38.181Z,100215.88
2024-01-15T04:45:40.450Z,100208.53
2024-01-15T04:50:42.635Z,100237.84
2024-01-15T04:55:45.310Z,100225.28
2024-01-15T05:00:47.784Z,100243.16
2024-01-15T05:05:50.190Z,100217.16
2024-01-15T05:10:52.534Z,100184.56
2024-01-15T05:15:55.105Z,100166.66
2024-01-15T05:20:57.449Z,100188.97
2024-01-15T05:25:59.722Z,100107.72
2024-01-15T05:31:02.246Z,100126.03
2024-01-15T05:36:04.853Z,100161.50
2024-01-15T05:41:07.462Z,100212.63
2024-01-15T05:46:09.744Z,100180.47
2024-01-15T05:51:12.155Z,100118.56
2024-01-15T05:56:14.392Z,100178.16
2024-01-15T06:01:16.735Z,100152.47
2024-01-15T06:06:19.544Z,100133.84
2024-01-15T06:11:21.901Z,100088.31
2024-01-15T06:16:25.644Z,100192.81
2024-01-15T06:21:28.137Z,100157.09
2024-01-15T06:26:30.522Z,100105.69
2024-01-15T06:31:32.935Z,100157.41
2024-01-15T06:36:35.313Z,100137.59
2024-01-15T06:41:44.982Z,100127.97
2024-01-15T06:46:49.340Z,100176.22
2024-01-15T06:51:51.785Z,100174.94
2024-01-15T06:56:54.108Z,100204.50
2024-01-15T07:01:56.821Z,100130.72
2024-01-15T07:06:59.194Z,100136.59
2024-01-15T07:12:01.560Z,100171.78
2024-01-15T07:17:03.993Z,100123.47
2024-01-15T07:22:06.456Z,100186.44
2024-01-15T07:27:09.976Z,100204.03
2024-01-15T07:32:12.476Z,100074.88
2024-01-15T07:37:14.758Z,100220.13
2024-01-15T07:42:17.151Z,100092.66
2024-01-15T07:47:19.508Z,100157.34
2024-01-15T07:52:21.778Z,100138.91
2024-01-15T07:57:24.299Z,100204.09
2024-01-15T08:02:26.599Z,100198.03
2024-01-15T08:07:29.242Z,100188.03
2024-01-15T08:12:31.682Z,100179.91
2024-01-15T08:17:34.050Z,100216.47
2024-01-15T08:22:36.412Z,100187.19
2024-01-15T08:27:38.626Z,100139.56
2024-01-15T08:32:44.265Z,100175.22
2024-01-15T08:37:46.608Z,100188.91
2024-01-15T08:42:48.996Z,100153.88
2024-01-15T08:47:51.442Z,100155.22
2024-01-15T08:52:54.019Z,100170.72
2024-01-15T08:57:57.997Z,100102.44
2024-01-15T09:03:00.495Z,100205.84
2024-01-15T09:08:02.787Z,100125.03
2024-01-15T09:13:06.198Z,100177.13
2024-01-15T09:18:08.989Z,100172.13
2024-01-15T09:23:11.376Z,100134.75
2024-01-15T09:28:13.581Z,100126.69
2024-01-15T09:33:15.916Z,100124.16
2024-01-15T09:38:20.603Z,100127.59
2024-01-15T09:43:23.560Z,100105.03
2024-01-15T09:48:25.855Z,100109.25
2024-01-15T09:53:28.169Z,100072.72
2024-01-15T09:58:31.347Z,100082.09
2024-01-15T10:03:34.708Z,100058.63
2024-01-15T10:08:38.918Z,100003.00
2024-01-15T10:13:43.103Z,100060.31
2024-01-15T10:18:46.290Z,100004.91
2024-01-15T10:23:48.592Z,100028.81
2024-01-15T10:28:53.817Z,100034.97
2024-01-15T10:33:56.214Z,100015.34
2024-01-15T10:38:59.453Z,100008.41
2024-01-15T10:44:01.717Z,99995.72
2024-01-15T10:49:04.104Z,99998.91
2024-01-15T10:54:06.832Z,99986.47
2024-01-15T10:59:11.954Z,99972.16
2024-01-15T11:04:14.552Z,99950.69
2024-01-15T11:09:20.095Z,99951.41
2024-01-15T11:15:05.588Z,99946.50
2024-01-15T11:20:08.195Z,99928.78
2024-01-15T11:25:17.666Z,99906.00
2024-01-15T11:40:53.306Z,99894.53
2024-01-15T11:51:13.932Z,99886.50
2024-01-15T11:56:23.510Z,99896.38
2024-01-15T12:01:26.707Z,99896.56
2024-01-15T12:06:29.132Z,99870.66
2024-01-15T12:11:33.460Z,99838.25
2024-01-15T12:16:36.111Z,99858.03
2024-01-15T12:21:41.302Z,99862.16
2024-01-15T12:26:43.567Z,99843.84
2024-01-15T12:31:49.827Z,99846.31
2024-01-15T12:36:52.063Z,99855.09
2024-01-15T12:41:54.579Z,99838.13
2024-01-15T12:46:56.758Z,99829.06
2024-01-15T12:51:59.950Z,99844.31
2024-01-15T12:57:02.262Z,99838.06
2024-01-15T13:02:04.594Z,99842.38
2024-01-15T13:07:08.264Z,99832.03
2024-01-15T13:12:10.625Z,99835.25
2024-01-15T13:17:12.853Z,99824.50
2024-01-15T13:22:17.463Z,99822.63
2024-01-15T13:27:19.707Z,99827.16
2024-01-15T13:32:31.390Z,99813.91
2024-01-15T13:37:33.726Z,99810.41
2024-01-15T13:42:35.940Z,99785.97
2024-01-15T13:47:39.139Z,99791.00
2024-01-15T13:52:43.613Z,99790.94
2024-01-15T13:57:45.916Z,99789.72
2024-01-15T14:02:50.901Z,99782.84
2024-01-15T14:07:53.167Z,99778.78
2024-01-15T14:12:55.352Z,99778.19
2024-01-15T14:17:57.580Z,99781.22
2024-01-15T14:22:59.932Z,99778.31
2024-01-15T14:28:02.208Z,99797.69
2024-01-15T14:33:04.726Z,99785.34
2024-01-15T14:38:07.076Z,99776.53
2024-01-15T14:43:09.762Z,99760.09
2024-01-15T14:48:12.483Z,99763.78
2024-01-15T14:53:14.751Z,99765.59
2024-01-15T14:58:16.929Z,99761.81
2024-01-15T15:03:19.521Z,99772.78
2024-01-15T15:08:22.016Z,99724.91
2024-01-15T15:13:34.009Z,99717.06
2024-01-15T15:18:45.288Z,99729.03
2024-01-15T15:23:49.052Z,99740.25
2024-01-15T15:28:51.328Z,99732.53
2024-01-15T15:33:54.553Z,99725.09
2024-01-15T15:38:58.553Z,99735.28
2024-01-15T15:44:00.988Z,99721.28
2024-01-15T15:49:08.204Z,99724.91
2024-01-15T15:54:10.873Z,99719.69
2024-01-15T15:59:13.111Z,99734.13
2024-01-15T16:04:16.805Z,99725.88
2024-01-15T16:09:19.315Z,99711.94
2024-01-15T16:14:21.573Z,99707.78
2024-01-15T16:23:25.014Z,99710.84
2024-01-15T16:24:51.246Z,99722.09
2024-01-15T16:29:55.640Z,99733.50
2024-01-15T16:34:59.273Z,99729.81
2024-01-15T16:40:01.735Z,99725.34
2024-01-15T16:45:04.238Z,99709.03
2024-01-15T16:50:06.910Z,99709.63
2024-01-15T16:55:09.417Z,99700.16
2024-01-15T17:00:12.408Z,99703.25
2024-01-15T17:05:14.718Z,99693.78
2024-01-15T17:10:17.042Z,99715.47
2024-01-15T17:15:19.226Z,99699.56
2024-01-15T17:20:21.809Z,99690.25
2024-01-15T17:25:24.040Z,99716.69
2024-01-15T17:30:26.945Z,99706.22
2024-01-15T17:35:29.943Z,99679.38
2024-01-15T17:40:32.368Z,99682.31
2024-01-15T17:45:34.506Z,99690.13
2024-01-15T17:50:38.339Z,99681.44
2024-01-15T17:55:40.908Z,99685.63
2024-01-15T18:00:43.133Z,99659.31
2024-01-15T18:05:45.721Z,99639.16
2024-01-15T18:10:48.234Z,99647.03
2024-01-15T18:16:00.212Z,99623.25
2024-01-15T18:21:02.500Z,99582.56
2024-01-15T18:26:06.356Z,99625.59
2024-01-15T18:31:09.144Z,99625.44
2024-01-15T18:36:12.583Z,99627.88
2024-01-15T18:41:27.399Z,99578.03
2024-01-15T18:46:30.070Z,99630.69
2024-01-15T18:51:32.348Z,99559.97
2024-01-15T18:56:39.861Z,99589.28
2024-01-15T19:01:42.378Z,99580.63
2024-01-15T19:06:48.380Z,99527.06
2024-01-15T19:11:51.506Z,99610.84
2024-01-15T19:16:54.206Z,99623.25
2024-01-15T19:21:56.417Z,99606.50
2024-01-15T19:26:58.799Z,99625.44
2024-01-15T19:32:02.279Z,99617.28
2024-01-15T19:37:05.816Z,99614.28
2024-01-15T19:42:08.113Z,99602.78
2024-01-15T19:47:10.531Z,99613.34
2024-01-15T19:52:13.070Z,99606.06
2024-01-15T19:57:15.589Z,99594.72
2024-01-15T20:02:17.872Z,99595.00
2024-01-15T20:07:20.182Z,99602.81
2024-01-15T20:12:22.855Z,99539.88
2024-01-15T20:17:26.346Z,99541.78
2024-01-15T20:22:33.209Z,99514.94
2024-01-15T20:27:37.379Z,99537.13
2024-01-15T20:32:39.755Z,99587.03
2024-01-15T20:37:42.163Z,99592.81
2024-01-15T20:42:44.336Z,99559.97
2024-01-15T20:47:46.766Z,99523.03
2024-01-15T20:52:49.067Z,99556.75
2024-01-15T20:57:51.372Z,99540.47
2024-01-15T21:02:56.225Z,99557.47
2024-01-15T21:07:59.737Z,99554.50
2024-01-15T21:13:02.054Z,99558.16
2024-01-15T21:18:07.556Z,99579.59
2024-01-15T21:23:11.525Z,99538.72
2024-01-15T21:28:13.763Z,99535.22
2024-01-15T21:33:16.228Z,99556.53
2024-01-15T21:38:18.418Z,99536.81
2024-01-15T21:43:20.553Z,99544.63
2024-01-15T21:48:22.817Z,99570.00
2024-01-15T21:53:25.444Z,99557.69
2024-01-15T21:58:27.662Z,99560.03
2024-01-15T22:03:29.990Z,99551.97
2024-01-15T22:08:32.406Z,99556.09
2024-01-15T22:13:34.614Z,99540.81
2024-01-15T22:18:36.934Z,99534.97
2024-01-15T22:23:39.245Z,99542.00
2024-01-15T22:28:41.600Z,99550.22
2024-01-15T22:33:44.221Z,99533.28
2024-01-15T22:38:46.625Z,99557.19
2024-01-15T22:43:48.775Z,99549.00
2024-01-15T22:48:51.006Z,99527.94
2024-01-15T22:53:54.949Z,99551.50
2024-01-15T22:58:57.304Z,99534.47
2024-01-15T23:03:59.484Z,99533.75
2024-01-15T23:09:01.677Z,99526.00
2024-01-15T23:14:03.933Z,99524.63
2024-01-15T23:19:06.809Z,99514.06
2024-01-15T23:24:11.911Z,99520.53
2024-01-15T23:29:14.450Z,99512.72
2024-01-15T23:34:16.863Z,99500.31
2024-01-15T23:39:19.104Z,99522.66
2024-01-15T23:44:21.366Z,99530.75
2024-01-15T23:49:23.703Z,99488.28
2024-01-15T23:54:26.835Z,99504.25
2024-01-15T23:59:29.224Z,99490.56
